Vendee 1 — FGH2726 — position and weather

sailwx.info

Track history (hours):
 
Tides and Currents Weather Stations Pressure Air Temp Water Temp Dewpoint Dewpoint Depression Visibility Wind Speed Wind Dir Waves Ship Positions

Vendee 1

Last reported at 2018-Feb-16 04:39 UTC. Time now 2018-Feb-20 00:12 UTC.
Position N 46°42' W 001°57'.

Length 10 m.

Type: Sailing vessel. MMSI: 227078960.

Date/timePositionNaut miles runAvg speedWind from/ knotsBaromVisibWave heightAir tempDewpointWater temp
2018-Feb-16 04:39N 46°42' W 001°57'4 0.3
2018-Feb-15 17:00N 46°39' W 002°02'3 6.6
2018-Feb-15 16:30N 46°36' W 001°59'3 6.5
2018-Feb-15 16:00N 46°34' W 001°57'3 6.6
2018-Feb-15 15:30N 46°31' W 001°54'3 5.2
2018-Feb-15 15:00N 46°29' W 001°51'2 3.5
2018-Feb-15 14:30N 46°31' W 001°52'3 6.2
2018-Feb-15 14:00N 46°34' W 001°54'3 6.3
2018-Feb-15 13:30N 46°37' W 001°56'3 6.1
2018-Feb-15 13:00N 46°39' W 001°58'1 2.8
2018-Feb-15 12:28N 46°41' W 001°58'  
2018-Feb-12 14:42N 46°41' W 001°58'1 2.3
2018-Feb-12 14:22N 46°40' W 001°57'0 0.6
2018-Feb-12 13:37N 46°40' W 001°57'1 0.0
2018-Feb-10 13:57N 46°41' W 001°57'1 2.9
2018-Feb-10 13:29N 46°40' W 001°57'1 1.4
2018-Feb-10 12:56N 46°39' W 001°58'  
Track history (hours):
 
Tides and Currents Weather Stations Pressure Air Temp Water Temp Dewpoint Dewpoint Depression Visibility Wind Speed Wind Dir Waves Ship Positions

Vendee 1

Last reported at 2018-Feb-16 04:39 UTC. Time now 2018-Feb-20 00:12 UTC.
Position N 46°42' W 001°57'.

Length 10 m.

Type: Sailing vessel. MMSI: 227078960.

Date/timePositionNaut miles runAvg speedWind from/ knotsBaromVisibWave heightAir tempDewpointWater temp
2018-Feb-16 04:39N 46°42' W 001°57'4 0.3
2018-Feb-15 17:00N 46°39' W 002°02'3 6.6
2018-Feb-15 16:30N 46°36' W 001°59'3 6.5
2018-Feb-15 16:00N 46°34' W 001°57'3 6.6
2018-Feb-15 15:30N 46°31' W 001°54'3 5.2
2018-Feb-15 15:00N 46°29' W 001°51'2 3.5
2018-Feb-15 14:30N 46°31' W 001°52'3 6.2
2018-Feb-15 14:00N 46°34' W 001°54'3 6.3
2018-Feb-15 13:30N 46°37' W 001°56'3 6.1
2018-Feb-15 13:00N 46°39' W 001°58'1 2.8
2018-Feb-15 12:28N 46°41' W 001°58'  
2018-Feb-12 14:42N 46°41' W 001°58'1 2.3
2018-Feb-12 14:22N 46°40' W 001°57'0 0.6
2018-Feb-12 13:37N 46°40' W 001°57'1 0.0
2018-Feb-10 13:57N 46°41' W 001°57'1 2.9
2018-Feb-10 13:29N 46°40' W 001°57'1 1.4
2018-Feb-10 12:56N 46°39' W 001°58'  

Dump ship's entire track history